Rechercher aéroport 
image banner adimage banner adimage banner ad
image banner ad

2CL0 - Commerce Business Park

Situé à City Of Commerce, United States

ICAO - 2CL0, IATA -

Données fournies par Airmate  

Information générale

Coordonnées: N33°59'15" W118°9'41"
Élévation : 135 feet MSL.
Variation magnétique : 14° East
Voir autres Aéroports à California

Données opérationnelles

Special qualification required
Heure actuelle UTC:
Heure actuelle locale:
Météo à : KEMT - San Gabriel Valley ( 16 km )
METAR: KEMT 251545Z 00000KT 10SM CLR 21/16 A3000
Voir NOTAMs / SUP AIP / TFR affectant cet aéroport [VIEW]
Fréquences de communication: [VIEW]

Pistes:

Coordonnées de l'aéroport

Adresse: City Of Commerce United States

Vue satellite de 2CL0